West Palm Beach, FL

7:58 PM EST on February 27, 2015 (GMT -0500)
Palm Beach, FL | Change Station
CLOSE
Current Station
Personal Weather Station
Location: Palm Beach, FL
Elevation: 8 ft
Nearby Weather Stations

Elev 8 ft 26.71 °N, 80.04 °W | Updated 18 seconds ago

Overcast
Overcast
70.5 °F
Feels Like 70.5 °F
N
4.0
Wind Variable Wind from NE
Gusts 9.0 mph

Today
High -- | Low -- °F
--% Chance of Precip.
Yesterday
High -- | Low -- °F
Precip. -- in
6:46 AM 6:20 PM
Waxing Gibbous, 73% visible
Pressure 30.15 in
Visibility 10.0 miles
Clouds Scattered Clouds 800 ft
Overcast 1600 ft
Dew Point 68 °F
Humidity 92%
Rainfall 0.25 in
Snow Depth Not available.
UV 0 out of 12
Pollen 9.30 out of 12
Air Quality Not available.
Flu Activity Not available.
METAR KPBI 280053Z 04007KT 10SM SCT008 OVC016 21/19 A3015 RMK AO2 RAE42 SLP209 P0000 T02110194

More Conditions Fewer Conditions

Pressure 30.15 in
Visibility 10.0 miles
Clouds Scattered Clouds 800 ft
Overcast 1600 ft
Dew Point 68 °F
Humidity 92%
Rainfall 0.25 in
Snow Depth Not available.
UV 0 out of 12
Pollen 9.30 out of 12
Air Quality Not available.
Flu Activity Not available.
METAR KPBI 280053Z 04007KT 10SM SCT008 OVC016 21/19 A3015 RMK AO2 RAE42 SLP209 P0000 T02110194

More Conditions Fewer Conditions

10-Day Weather Forecast

Almanac

Astronomy

Feb. 27, 2015 Rise Set
Actual Time
Civil Twilight
Nautical Twilight
Astronomical Twilight
Moon
Length of Visible Light
Length of Day
Tomorrow will be .
, % of the Moon is Illuminated

Today's Extremes

State Highs State Lows

Community

WunderPhotos

Upload Photos

1,800,910 photos uploaded!

WunderBlogs® & News

Nearby

Air Quality

  Air Quality AQ Index Pollutant
Not available.

Snow Depth

Station Depth Elevation

Earthquake Activity

City Distance Mag. Time & Date
Minimum magnitude displayed is 2.5.

Coastal Water Temperatures

Place Temperature

Nearby Weather Stations